Massey, Canada
Current Conditions -  °F | °C
As of 2:06 AM on Saturday 25 Oct 2014 (Local Time) from CYZE Reporting Station
Scattered Clouds Scattered Clouds  
Wind Chill: 50°   Ceiling: Unl
Heat Index: 50°   Visibility: 9mi
Dew Point: 48°   Wind: 8mph
Humidity: 94%   Direction: 200°SSW
Pressure: 29.79"   Gusts: NA
Location:  46.21°N, 82.08°W
Report Text: CYZE 250606Z AUTO 20007KT 9SM SCT018 10/09 A2979 RMK SLP091
Loading
Personal Weather Stations






























Interactive Weather Map New forecast layout! Learn more

10-Day Weather Forecast

Advertisements
Track Severe Weather on mobile